Time;durP1;ratioP1;P1;durP2;ratioP2;P2;SDS_P1;SDS_P2;PMS_P1;PMS_P2;Temp;Humidity;BMP_temperature;BMP_pressure;BME280_temperature;BME280_humidity;BME280_pressure;Samples;Min_cycle;Max_cycle;Signal;HPM_P1;HPM_P2
2021/11/19 00:02:04;;;;;;;24.80;11.90;;;;;;;;;;5036467;28;20218;-72
2021/11/19 00:04:32;;;;;;;19.47;12.27;;;;;;;;;;5034852;28;20264;-72
2021/11/19 00:06:59;;;;;;;23.63;12.87;;;;;;;;;;5036359;28;20666;-72
2021/11/19 00:09:26;;;;;;;22.30;11.50;;;;;;;;;;5035965;28;20213;-72
2021/11/19 00:11:54;;;;;;;25.30;12.60;;;;;;;;;;5035688;28;20764;-72
2021/11/19 00:14:23;;;;;;;20.27;11.60;;;;;;;;;;5035913;28;20930;-72
2021/11/19 00:16:55;;;;;;;19.50;11.00;;;;;;;;;;5035919;28;20265;-72
2021/11/19 00:19:22;;;;;;;20.13;11.27;;;;;;;;;;5034309;28;20237;-72
2021/11/19 00:21:49;;;;;;;20.53;11.97;;;;;;;;;;5033757;28;20222;-72
2021/11/19 00:24:15;;;;;;;20.37;12.40;;;;;;;;;;5034849;28;20248;-72
2021/11/19 00:26:42;;;;;;;20.13;11.53;;;;;;;;;;5034457;28;20268;-72
2021/11/19 00:29:11;;;;;;;19.00;11.67;;;;;;;;;;5035319;28;20705;-72
2021/11/19 00:31:38;;;;;;;17.47;10.40;;;;;;;;;;5034430;28;20708;-72
2021/11/19 00:34:05;;;;;;;23.67;11.20;;;;;;;;;;5033752;28;20768;-72
2021/11/19 00:36:34;;;;;;;18.30;10.70;;;;;;;;;;5034857;28;20213;-72
2021/11/19 00:39:07;;;;;;;16.30;9.33;;;;;;;;;;5034985;28;20205;-71
2021/11/19 00:41:35;;;;;;;21.77;10.70;;;;;;;;;;5034926;28;20897;-72
2021/11/19 00:44:02;;;;;;;18.50;9.97;;;;;;;;;;5034809;28;20269;-72
2021/11/19 00:46:29;;;;;;;19.53;9.57;;;;;;;;;;5035740;28;20230;-72
2021/11/19 00:48:56;;;;;;;15.87;9.87;;;;;;;;;;5035021;28;20231;-72
2021/11/19 00:51:26;;;;;;;17.03;9.73;;;;;;;;;;5034655;28;20246;-72
2021/11/19 00:53:55;;;;;;;18.60;11.17;;;;;;;;;;5034675;28;20257;-72
2021/11/19 00:56:25;;;;;;;19.73;10.87;;;;;;;;;;5033626;28;20222;-71
2021/11/19 00:58:53;;;;;;;17.80;10.97;;;;;;;;;;5036385;28;20207;-72
2021/11/19 01:01:23;;;;;;;22.27;10.67;;;;;;;;;;5033184;28;20218;-72
2021/11/19 01:03:50;;;;;;;15.77;10.00;;;;;;;;;;5035014;28;20238;-72
2021/11/19 01:06:17;;;;;;;17.40;10.23;;;;;;;;;;5033779;28;20239;-72
2021/11/19 01:08:44;;;;;;;14.43;9.83;;;;;;;;;;5034504;28;21233;-72
2021/11/19 01:11:14;;;;;;;23.77;10.20;;;;;;;;;;5034736;28;20255;-72
2021/11/19 01:13:43;;;;;;;16.07;8.87;;;;;;;;;;5034218;28;20593;-72
2021/11/19 01:16:12;;;;;;;18.97;9.00;;;;;;;;;;5034262;28;20734;-72
2021/11/19 01:18:42;;;;;;;15.60;9.50;;;;;;;;;;5034529;28;20226;-72
2021/11/19 01:21:13;;;;;;;19.27;9.80;;;;;;;;;;5032737;28;20249;-72
2021/11/19 01:23:41;;;;;;;15.80;9.10;;;;;;;;;;5034679;28;20673;-72
2021/11/19 01:26:15;;;;;;;15.23;9.77;;;;;;;;;;5033379;28;20588;-72
2021/11/19 01:28:43;;;;;;;13.30;8.90;;;;;;;;;;5033431;28;20265;-72
2021/11/19 01:31:12;;;;;;;14.13;9.13;;;;;;;;;;5034032;28;20210;-71
2021/11/19 01:33:39;;;;;;;15.47;9.27;;;;;;;;;;5032871;28;20231;-71
2021/11/19 01:36:06;;;;;;;16.13;9.00;;;;;;;;;;5034391;28;20292;-72
2021/11/19 01:38:34;;;;;;;19.90;10.30;;;;;;;;;;5033458;28;20211;-71
2021/11/19 01:41:05;;;;;;;21.77;11.03;;;;;;;;;;5035651;28;20241;-72
2021/11/19 01:43:33;;;;;;;19.83;10.23;;;;;;;;;;5033300;28;20826;-72
2021/11/19 01:46:03;;;;;;;18.90;10.67;;;;;;;;;;5033346;28;20910;-72
2021/11/19 01:48:39;;;;;;;15.83;10.80;;;;;;;;;;5032819;28;20685;-72
2021/11/19 01:51:13;;;;;;;19.03;11.10;;;;;;;;;;5034660;28;21000;-72
2021/11/19 01:53:45;;;;;;;16.53;11.47;;;;;;;;;;5034832;28;20217;-72
2021/11/19 01:56:15;;;;;;;18.47;11.77;;;;;;;;;;5032410;28;20864;-72
2021/11/19 01:58:45;;;;;;;17.17;12.07;;;;;;;;;;5034362;28;20665;-72
2021/11/19 02:01:17;;;;;;;21.00;12.87;;;;;;;;;;5033024;28;20223;-71
2021/11/19 02:03:47;;;;;;;16.87;11.73;;;;;;;;;;5032250;28;20279;-72
2021/11/19 02:06:18;;;;;;;22.43;13.47;;;;;;;;;;5033170;28;20225;-71
2021/11/19 02:08:47;;;;;;;18.37;11.60;;;;;;;;;;5034509;28;20299;-72
2021/11/19 02:11:25;;;;;;;18.93;12.23;;;;;;;;;;5033013;28;20223;-72
2021/11/19 02:13:57;;;;;;;21.53;11.83;;;;;;;;;;5032195;28;20243;-72
2021/11/19 02:16:33;;;;;;;21.53;12.90;;;;;;;;;;5032709;28;20264;-72
2021/11/19 02:19:03;;;;;;;24.70;13.40;;;;;;;;;;5031877;28;20277;-72
2021/11/19 02:21:35;;;;;;;20.90;12.60;;;;;;;;;;5034654;28;20670;-72
2021/11/19 02:24:05;;;;;;;18.07;12.00;;;;;;;;;;5033501;28;20272;-72
2021/11/19 02:26:37;;;;;;;22.83;13.83;;;;;;;;;;5033258;28;20231;-72
2021/11/19 02:29:06;;;;;;;20.83;12.90;;;;;;;;;;5032912;28;20218;-72
2021/11/19 02:31:35;;;;;;;19.93;13.33;;;;;;;;;;5032335;28;20211;-72
2021/11/19 02:34:04;;;;;;;22.00;13.73;;;;;;;;;;5033259;28;20229;-72
2021/11/19 02:36:37;;;;;;;23.23;15.77;;;;;;;;;;5033774;28;20268;-72
2021/11/19 02:39:08;;;;;;;19.57;13.57;;;;;;;;;;5032715;28;20661;-72
2021/11/19 02:41:39;;;;;;;19.43;13.33;;;;;;;;;;5031957;28;20214;-72
2021/11/19 02:44:08;;;;;;;18.27;13.37;;;;;;;;;;5031615;28;20893;-72
2021/11/19 02:46:37;;;;;;;20.37;13.57;;;;;;;;;;5033337;28;21326;-71
2021/11/19 02:49:04;;;;;;;18.83;13.40;;;;;;;;;;5032205;28;20387;-72
2021/11/19 02:51:34;;;;;;;23.30;14.00;;;;;;;;;;5032865;28;20226;-72
2021/11/19 02:54:01;;;;;;;20.53;13.73;;;;;;;;;;5032219;28;20257;-72
2021/11/19 02:56:29;;;;;;;22.17;13.33;;;;;;;;;;5033043;28;20268;-71
2021/11/19 02:58:58;;;;;;;22.30;13.50;;;;;;;;;;5033624;28;20228;-72
2021/11/19 03:01:27;;;;;;;20.27;12.73;;;;;;;;;;5033024;28;20218;-72
2021/11/19 03:04:05;;;;;;;20.63;11.70;;;;;;;;;;5031587;28;20696;-72
2021/11/19 03:06:34;;;;;;;16.67;12.30;;;;;;;;;;5032471;28;20275;-72
2021/11/19 03:09:01;;;;;;;19.10;11.83;;;;;;;;;;5030649;28;20677;-72
2021/11/19 03:11:29;;;;;;;16.73;12.00;;;;;;;;;;5029596;28;20295;-72
2021/11/19 03:13:55;;;;;;;18.13;11.90;;;;;;;;;;5032895;28;20297;-72
2021/11/19 03:16:22;;;;;;;19.67;11.90;;;;;;;;;;5033414;28;20206;-72
2021/11/19 03:18:48;;;;;;;21.70;11.97;;;;;;;;;;5031310;28;20295;-72
2021/11/19 03:21:18;;;;;;;22.60;12.37;;;;;;;;;;5032573;28;20837;-72
2021/11/19 03:23:45;;;;;;;19.83;11.33;;;;;;;;;;5031905;28;20269;-72
2021/11/19 03:26:13;;;;;;;18.93;11.13;;;;;;;;;;5033098;28;20766;-72
2021/11/19 03:28:44;;;;;;;18.63;10.50;;;;;;;;;;5032523;28;20268;-71
2021/11/19 03:31:12;;;;;;;19.60;10.90;;;;;;;;;;5033151;28;20299;-72
2021/11/19 03:33:41;;;;;;;16.57;11.23;;;;;;;;;;5030850;28;20245;-72
2021/11/19 03:36:10;;;;;;;20.83;11.20;;;;;;;;;;5032877;28;20211;-72
2021/11/19 03:38:39;;;;;;;17.07;11.00;;;;;;;;;;5032078;28;20260;-72
2021/11/19 03:41:07;;;;;;;15.77;11.27;;;;;;;;;;5032106;28;20267;-72
2021/11/19 03:43:38;;;;;;;13.60;10.00;;;;;;;;;;5031639;28;20214;-72
2021/11/19 03:46:09;;;;;;;19.50;11.93;;;;;;;;;;5034047;28;20636;-72
2021/11/19 03:48:36;;;;;;;13.27;10.67;;;;;;;;;;5032344;28;20310;-72
2021/11/19 03:51:07;;;;;;;13.57;9.47;;;;;;;;;;5031870;28;20713;-72
2021/11/19 03:53:34;;;;;;;18.50;11.23;;;;;;;;;;5034419;28;20263;-72
2021/11/19 03:56:01;;;;;;;19.03;10.60;;;;;;;;;;5032512;28;20211;-72
2021/11/19 03:58:31;;;;;;;16.47;10.50;;;;;;;;;;5033472;28;20211;-72
2021/11/19 04:00:59;;;;;;;15.80;10.77;;;;;;;;;;5033153;28;20290;-72
2021/11/19 04:03:28;;;;;;;16.43;11.30;;;;;;;;;;5031385;28;20231;-72
2021/11/19 04:05:54;;;;;;;19.00;11.03;;;;;;;;;;5031485;28;20207;-72
2021/11/19 04:08:22;;;;;;;19.90;10.33;;;;;;;;;;5031699;28;20269;-72
2021/11/19 04:10:49;;;;;;;21.33;11.00;;;;;;;;;;5031212;28;20280;-72
2021/11/19 04:13:16;;;;;;;14.67;10.73;;;;;;;;;;5033050;28;20215;-72
2021/11/19 04:15:46;;;;;;;23.37;12.17;;;;;;;;;;5033269;28;20214;-72
2021/11/19 04:18:13;;;;;;;23.63;12.77;;;;;;;;;;5032425;28;20767;-72
2021/11/19 04:20:42;;;;;;;24.70;12.57;;;;;;;;;;5033431;28;20214;-71
2021/11/19 04:23:09;;;;;;;18.20;12.40;;;;;;;;;;5032359;28;20230;-72
2021/11/19 04:25:36;;;;;;;20.13;12.20;;;;;;;;;;5031249;28;20214;-73
2021/11/19 04:28:03;;;;;;;18.00;11.63;;;;;;;;;;5030971;28;20223;-72
2021/11/19 04:30:33;;;;;;;22.33;13.27;;;;;;;;;;5032292;28;20257;-72
2021/11/19 04:33:00;;;;;;;18.27;12.90;;;;;;;;;;5034996;28;20289;-72
2021/11/19 04:35:27;;;;;;;20.77;13.60;;;;;;;;;;5035327;28;20219;-72
2021/11/19 04:37:55;;;;;;;24.37;14.80;;;;;;;;;;5036337;28;20207;-72
2021/11/19 04:40:23;;;;;;;21.90;14.13;;;;;;;;;;5034888;28;20759;-71
2021/11/19 04:42:50;;;;;;;18.87;14.27;;;;;;;;;;5032135;28;20242;-71
2021/11/19 04:45:22;;;;;;;25.13;15.07;;;;;;;;;;5033537;28;20210;-72
2021/11/19 04:47:49;;;;;;;23.53;15.80;;;;;;;;;;5035951;28;20220;-72
2021/11/19 04:50:17;;;;;;;25.47;15.77;;;;;;;;;;5033320;28;20644;-72
2021/11/19 04:52:44;;;;;;;23.30;14.77;;;;;;;;;;5035594;28;20242;-72
2021/11/19 04:55:13;;;;;;;22.67;15.50;;;;;;;;;;5034606;28;20211;-72
2021/11/19 04:57:40;;;;;;;25.57;16.10;;;;;;;;;;5034874;28;20256;-72
2021/11/19 05:00:10;;;;;;;27.13;15.67;;;;;;;;;;5034583;28;20310;-72
2021/11/19 05:02:37;;;;;;;25.77;16.57;;;;;;;;;;5034786;28;20272;-71
2021/11/19 05:05:04;;;;;;;32.97;16.93;;;;;;;;;;5034654;28;20215;-72
2021/11/19 05:07:30;;;;;;;26.97;16.43;;;;;;;;;;5033126;28;20739;-72
2021/11/19 05:09:57;;;;;;;22.53;15.80;;;;;;;;;;5035081;28;20218;-72
2021/11/19 05:12:28;;;;;;;21.03;16.57;;;;;;;;;;5034648;28;20223;-72
2021/11/19 05:14:54;;;;;;;25.00;16.40;;;;;;;;;;5033780;28;20213;-72
2021/11/19 05:17:22;;;;;;;24.63;16.93;;;;;;;;;;5033893;28;20268;-72
2021/11/19 05:19:49;;;;;;;23.03;16.93;;;;;;;;;;5034794;28;20260;-72
2021/11/19 05:22:15;;;;;;;29.37;17.63;;;;;;;;;;5032909;28;20215;-72
2021/11/19 05:24:42;;;;;;;24.00;18.30;;;;;;;;;;5035621;28;20264;-72
2021/11/19 05:27:09;;;;;;;29.60;18.13;;;;;;;;;;5034112;28;20238;-72
2021/11/19 05:29:37;;;;;;;24.47;17.87;;;;;;;;;;5032629;28;20248;-72
2021/11/19 05:32:06;;;;;;;28.08;19.83;;;;;;;;;;5031213;28;20445;-76
2021/11/19 05:34:32;;;;;;;26.70;18.33;;;;;;;;;;5034290;28;20260;-76
2021/11/19 05:36:59;;;;;;;24.33;17.83;;;;;;;;;;5034337;28;20216;-76
2021/11/19 05:39:25;;;;;;;28.00;16.73;;;;;;;;;;5032782;28;20214;-76
2021/11/19 05:41:52;;;;;;;22.10;15.57;;;;;;;;;;5031699;28;20215;-75
2021/11/19 05:44:19;;;;;;;26.27;15.90;;;;;;;;;;5034422;28;20223;-76
2021/11/19 05:46:47;;;;;;;26.13;15.73;;;;;;;;;;5033803;28;20230;-76
2021/11/19 05:49:16;;;;;;;25.23;15.97;;;;;;;;;;5034373;28;20277;-76
2021/11/19 05:51:45;;;;;;;27.90;15.90;;;;;;;;;;5033179;28;20345;-76
2021/11/19 05:54:14;;;;;;;22.80;14.27;;;;;;;;;;5032755;28;20215;-76
2021/11/19 05:56:41;;;;;;;23.73;14.73;;;;;;;;;;5033250;28;20218;-75
2021/11/19 05:59:09;;;;;;;23.30;13.70;;;;;;;;;;5033926;28;20226;-76
2021/11/19 06:01:35;;;;;;;23.17;14.00;;;;;;;;;;5032617;28;20294;-76
2021/11/19 06:04:04;;;;;;;20.00;13.50;;;;;;;;;;5034668;28;21176;-76
2021/11/19 06:06:30;;;;;;;22.33;13.20;;;;;;;;;;5032731;28;20210;-76
2021/11/19 06:08:57;;;;;;;22.00;13.10;;;;;;;;;;5032093;28;20225;-76
2021/11/19 06:11:34;;;;;;;23.70;13.17;;;;;;;;;;5034124;28;20248;-76
2021/11/19 06:14:05;;;;;;;22.47;13.30;;;;;;;;;;5033326;28;20213;-76
2021/11/19 06:16:35;;;;;;;22.30;12.77;;;;;;;;;;5033223;28;20293;-75
2021/11/19 06:19:07;;;;;;;23.83;12.77;;;;;;;;;;5034054;28;20226;-76
2021/11/19 06:21:42;;;;;;;23.00;12.73;;;;;;;;;;5034406;28;20209;-76
2021/11/19 06:24:13;;;;;;;19.47;12.40;;;;;;;;;;5033423;28;20568;-76
2021/11/19 06:26:41;;;;;;;22.83;11.37;;;;;;;;;;5032403;28;20280;-76
2021/11/19 06:29:08;;;;;;;16.53;11.27;;;;;;;;;;5031013;28;20214;-76
2021/11/19 06:31:36;;;;;;;23.40;12.83;;;;;;;;;;5032168;28;20223;-76
2021/11/19 06:34:05;;;;;;;24.77;12.10;;;;;;;;;;5031097;28;20851;-76
2021/11/19 06:36:32;;;;;;;19.57;11.37;;;;;;;;;;5032261;28;20206;-76
2021/11/19 06:39:00;;;;;;;27.53;12.80;;;;;;;;;;5032244;28;20290;-76
2021/11/19 06:41:26;;;;;;;20.93;12.10;;;;;;;;;;5031818;28;21214;-76
2021/11/19 06:43:53;;;;;;;22.30;11.67;;;;;;;;;;5032214;28;20218;-77
2021/11/19 06:46:21;;;;;;;17.07;11.90;;;;;;;;;;5031302;28;20221;-76
2021/11/19 06:48:49;;;;;;;18.27;11.27;;;;;;;;;;5032003;28;20778;-76
2021/11/19 06:51:17;;;;;;;16.63;10.67;;;;;;;;;;5029892;28;20290;-76
2021/11/19 06:53:44;;;;;;;21.03;11.20;;;;;;;;;;5031887;28;20214;-76
2021/11/19 06:56:10;;;;;;;19.57;11.43;;;;;;;;;;5031945;28;20221;-76
2021/11/19 06:58:37;;;;;;;20.90;10.13;;;;;;;;;;5033303;28;20210;-76
2021/11/19 07:01:05;;;;;;;25.17;11.33;;;;;;;;;;5030817;28;20219;-76
2021/11/19 07:03:31;;;;;;;15.67;10.27;;;;;;;;;;5032234;28;20238;-75
2021/11/19 07:05:58;;;;;;;18.40;9.93;;;;;;;;;;5031268;28;20539;-77
2021/11/19 07:08:27;;;;;;;19.73;10.60;;;;;;;;;;5028640;28;20907;-76
2021/11/19 07:10:57;;;;;;;18.60;11.57;;;;;;;;;;5027424;28;20207;-76
2021/11/19 07:13:24;;;;;;;17.30;11.10;;;;;;;;;;5029428;28;20202;-76
2021/11/19 07:15:51;;;;;;;21.83;11.90;;;;;;;;;;5028832;28;20720;-76
2021/11/19 07:18:17;;;;;;;20.37;10.50;;;;;;;;;;5028031;28;20226;-76
2021/11/19 07:20:45;;;;;;;22.07;11.20;;;;;;;;;;5029854;28;21042;-76
2021/11/19 07:23:12;;;;;;;19.90;11.03;;;;;;;;;;5027242;28;20269;-76
2021/11/19 07:25:41;;;;;;;20.17;11.47;;;;;;;;;;5029361;28;20560;-76
2021/11/19 07:28:10;;;;;;;22.67;11.30;;;;;;;;;;5029785;28;20246;-76
2021/11/19 07:30:39;;;;;;;18.37;11.13;;;;;;;;;;5029355;28;20209;-76
2021/11/19 07:33:06;;;;;;;23.50;12.10;;;;;;;;;;5029401;28;20230;-76
2021/11/19 07:35:33;;;;;;;20.00;11.00;;;;;;;;;;5029360;28;20205;-76
2021/11/19 07:38:00;;;;;;;18.17;11.03;;;;;;;;;;5030071;28;20243;-76
2021/11/19 07:40:30;;;;;;;18.23;10.00;;;;;;;;;;5029157;28;20721;-76
2021/11/19 07:42:58;;;;;;;19.80;10.63;;;;;;;;;;5029859;28;20861;-76
2021/11/19 07:45:28;;;;;;;26.30;11.07;;;;;;;;;;5028597;28;20287;-75
2021/11/19 07:47:55;;;;;;;19.17;10.03;;;;;;;;;;5029816;28;20244;-75
2021/11/19 07:50:26;;;;;;;17.27;10.30;;;;;;;;;;5029596;28;20230;-76
2021/11/19 07:52:53;;;;;;;16.97;10.43;;;;;;;;;;5030308;28;20290;-75
2021/11/19 07:55:19;;;;;;;26.53;11.30;;;;;;;;;;5027677;28;20218;-75
2021/11/19 07:57:46;;;;;;;18.30;9.77;;;;;;;;;;5029134;28;21309;-75
2021/11/19 08:00:17;;;;;;;22.53;10.17;;;;;;;;;;5029327;28;20257;-75
2021/11/19 08:02:43;;;;;;;18.40;9.73;;;;;;;;;;5030159;28;20284;-75
2021/11/19 08:05:10;;;;;;;16.00;9.73;;;;;;;;;;5029257;28;20284;-75
2021/11/19 08:07:36;;;;;;;18.73;9.70;;;;;;;;;;5034599;28;20682;-75
2021/11/19 08:10:04;;;;;;;15.23;9.00;;;;;;;;;;5034578;28;21165;-75
2021/11/19 08:12:30;;;;;;;18.93;10.27;;;;;;;;;;5032764;28;20639;-75
2021/11/19 08:14:57;;;;;;;18.57;9.50;;;;;;;;;;5034108;28;20214;-77
2021/11/19 08:17:27;;;;;;;14.90;8.77;;;;;;;;;;5032718;28;20534;-76
2021/11/19 08:19:54;;;;;;;15.30;9.33;;;;;;;;;;5033055;28;20649;-76
2021/11/19 08:22:21;;;;;;;15.60;8.57;;;;;;;;;;5030979;28;20847;-76
2021/11/19 08:24:48;;;;;;;18.13;8.80;;;;;;;;;;5031971;28;20217;-76
2021/11/19 08:27:17;;;;;;;16.47;8.50;;;;;;;;;;5030898;28;20271;-76
2021/11/19 08:29:47;;;;;;;12.97;8.07;;;;;;;;;;5033784;28;20245;-76
2021/11/19 08:32:14;;;;;;;15.87;8.47;;;;;;;;;;5030394;28;20260;-76
2021/11/19 08:34:42;;;;;;;15.50;8.73;;;;;;;;;;5031894;28;20222;-76
2021/11/19 08:37:10;;;;;;;18.67;8.17;;;;;;;;;;5033320;28;20214;-76
2021/11/19 08:39:37;;;;;;;13.77;7.83;;;;;;;;;;5033343;28;20243;-76
2021/11/19 08:42:06;;;;;;;12.63;7.33;;;;;;;;;;5032121;28;20293;-76
2021/11/19 08:44:32;;;;;;;13.53;6.77;;;;;;;;;;5032396;28;20305;-76
2021/11/19 08:46:59;;;;;;;16.87;6.80;;;;;;;;;;5033113;28;20260;-76
2021/11/19 08:49:28;;;;;;;12.87;7.23;;;;;;;;;;5031601;28;20241;-76
2021/11/19 08:51:56;;;;;;;11.30;6.73;;;;;;;;;;5031260;28;20313;-75
2021/11/19 08:54:23;;;;;;;12.87;7.13;;;;;;;;;;5030286;28;20211;-75
2021/11/19 08:56:52;;;;;;;16.20;6.93;;;;;;;;;;5030730;28;20208;-76
2021/11/19 08:59:20;;;;;;;9.93;6.20;;;;;;;;;;5028547;28;20764;-74
2021/11/19 09:01:49;;;;;;;12.80;6.50;;;;;;;;;;5031362;28;20215;-74
2021/11/19 09:04:16;;;;;;;12.10;6.37;;;;;;;;;;5030339;28;20631;-74
2021/11/19 09:06:43;;;;;;;17.97;6.80;;;;;;;;;;5030588;28;20218;-74
2021/11/19 09:09:11;;;;;;;11.53;6.57;;;;;;;;;;5030460;28;20230;-74
2021/11/19 09:11:39;;;;;;;10.23;5.57;;;;;;;;;;5032260;28;20279;-74
2021/11/19 09:14:06;;;;;;;11.37;5.90;;;;;;;;;;5031075;28;20708;-74
2021/11/19 09:16:36;;;;;;;10.50;5.30;;;;;;;;;;5030621;28;20207;-74
2021/11/19 09:19:09;;;;;;;17.43;5.50;;;;;;;;;;5030138;28;20242;-74
2021/11/19 09:21:40;;;;;;;9.67;5.63;;;;;;;;;;5031071;28;20222;-74
2021/11/19 09:24:09;;;;;;;11.67;5.60;;;;;;;;;;5031928;28;20211;-74
2021/11/19 09:26:40;;;;;;;9.57;5.17;;;;;;;;;;5030992;28;20218;-74
2021/11/19 09:29:09;;;;;;;14.70;5.70;;;;;;;;;;5030902;28;20230;-74
2021/11/19 09:31:37;;;;;;;11.67;5.20;;;;;;;;;;5030163;28;20393;-74
2021/11/19 09:34:04;;;;;;;13.40;5.07;;;;;;;;;;5030232;28;20223;-74
2021/11/19 09:36:30;;;;;;;11.20;4.73;;;;;;;;;;5032824;28;20214;-74
2021/11/19 09:38:57;;;;;;;10.60;5.33;;;;;;;;;;5032571;28;20844;-74
2021/11/19 09:41:40;;;;;;;9.80;4.73;;;;;;;;;;5028594;28;20207;-74
2021/11/19 09:44:24;;;;;;;15.23;5.63;;;;;;;;;;5030207;28;20355;-74
2021/11/19 09:47:19;;;;;;;10.27;5.10;;;;;;;;;;5029698;28;20219;-73
2021/11/19 09:50:24;;;;;;;9.10;4.27;;;;;;;;;;5031558;28;20215;-73
2021/11/19 09:53:31;;;;;;;10.73;3.83;;;;;;;;;;4961061;28;1053501;-74
2021/11/19 09:56:35;;;;;;;9.63;3.43;;;;;;;;;;5031468;28;20562;-73
2021/11/19 09:59:14;;;;;;;9.03;3.60;;;;;;;;;;5030449;28;20249;-74
2021/11/19 10:02:29;;;;;;;6.40;3.63;;;;;;;;;;5033525;28;20316;-74
2021/11/19 10:05:24;;;;;;;9.33;3.60;;;;;;;;;;5032037;28;20696;-74
2021/11/19 10:08:02;;;;;;;13.20;4.60;;;;;;;;;;5033262;28;20265;-74
2021/11/19 10:10:55;;;;;;;7.73;3.67;;;;;;;;;;5032280;28;20269;-74
2021/11/19 10:13:37;;;;;;;9.40;4.10;;;;;;;;;;5029932;28;20221;-77
2021/11/19 10:16:20;;;;;;;11.13;3.33;;;;;;;;;;5030584;28;20241;-74
2021/11/19 10:18:52;;;;;;;20.03;4.20;;;;;;;;;;5031226;28;20238;-74
2021/11/19 10:21:24;;;;;;;9.17;3.60;;;;;;;;;;5029991;28;20211;-74
2021/11/19 10:23:54;;;;;;;6.47;3.47;;;;;;;;;;5030002;28;20218;-74
2021/11/19 10:26:26;;;;;;;9.20;3.60;;;;;;;;;;5029567;28;20214;-74
2021/11/19 10:28:59;;;;;;;11.87;4.30;;;;;;;;;;5029466;28;20227;-73
2021/11/19 10:31:28;;;;;;;8.30;3.80;;;;;;;;;;5029891;28;20381;-74
2021/11/19 10:34:08;;;;;;;14.97;4.27;;;;;;;;;;5031026;28;20238;-74
2021/11/19 10:36:40;;;;;;;23.87;5.23;;;;;;;;;;5030719;28;20793;-74
2021/11/19 10:39:32;;;;;;;12.00;4.27;;;;;;;;;;5032008;28;20228;-74
2021/11/19 10:42:28;;;;;;;8.30;3.80;;;;;;;;;;5027435;28;20199;-74
2021/11/19 10:45:08;;;;;;;6.20;3.50;;;;;;;;;;5030768;28;20244;-74
2021/11/19 10:48:03;;;;;;;8.43;3.20;;;;;;;;;;5030079;28;20701;-74
2021/11/19 10:51:01;;;;;;;6.23;3.03;;;;;;;;;;5031138;28;20288;-74
2021/11/19 10:53:57;;;;;;;7.83;3.20;;;;;;;;;;5029786;28;20225;-74
2021/11/19 10:56:35;;;;;;;6.40;2.83;;;;;;;;;;5028852;28;20210;-74
2021/11/19 10:59:27;;;;;;;8.50;3.20;;;;;;;;;;5031269;28;20250;-74
2021/11/19 11:01:59;;;;;;;7.90;3.67;;;;;;;;;;5030071;28;20218;-74
2021/11/19 11:04:37;;;;;;;8.40;2.87;;;;;;;;;;5029792;28;20703;-74
2021/11/19 11:07:15;;;;;;;6.47;3.23;;;;;;;;;;5029697;28;20218;-74
2021/11/19 11:09:46;;;;;;;6.37;3.10;;;;;;;;;;5029469;28;20229;-74
2021/11/19 11:12:28;;;;;;;9.00;3.23;;;;;;;;;;5031439;28;20661;-74
2021/11/19 11:15:12;;;;;;;10.07;3.10;;;;;;;;;;5029552;28;20213;-73
2021/11/19 11:17:58;;;;;;;6.60;2.67;;;;;;;;;;5031226;28;20215;-74
2021/11/19 11:20:28;;;;;;;6.13;2.60;;;;;;;;;;5030621;28;20223;-73
2021/11/19 11:22:58;;;;;;;9.17;2.47;;;;;;;;;;5030942;28;20218;-74
2021/11/19 11:25:27;;;;;;;8.13;2.77;;;;;;;;;;5028117;28;20782;-74
2021/11/19 11:28:11;;;;;;;9.53;2.40;;;;;;;;;;5029949;28;20737;-74
2021/11/19 11:30:53;;;;;;;6.87;2.70;;;;;;;;;;5029637;28;20748;-74
2021/11/19 11:33:23;;;;;;;6.50;2.70;;;;;;;;;;5030229;28;20230;-74
2021/11/19 11:35:54;;;;;;;7.33;2.30;;;;;;;;;;5031316;28;20309;-74
2021/11/19 11:38:26;;;;;;;8.93;3.00;;;;;;;;;;5029129;28;20213;-73
2021/11/19 11:41:26;;;;;;;8.23;2.83;;;;;;;;;;5032851;28;20222;-74
2021/11/19 11:44:21;;;;;;;4.57;2.47;;;;;;;;;;5033976;28;20211;-74
2021/11/19 11:46:59;;;;;;;6.50;2.40;;;;;;;;;;4994052;28;20304;-74
2021/11/19 11:49:39;;;;;;;8.30;2.70;;;;;;;;;;5033938;28;20221;-74
2021/11/19 11:52:19;;;;;;;9.40;2.50;;;;;;;;;;5033078;28;20249;-73
2021/11/19 11:54:57;;;;;;;10.07;2.30;;;;;;;;;;5037301;28;20203;-74
2021/11/19 11:57:35;;;;;;;7.10;2.83;;;;;;;;;;5031432;28;20283;-74
2021/11/19 12:00:08;;;;;;;6.97;2.40;;;;;;;;;;5030536;28;20219;-74
2021/11/19 12:02:56;;;;;;;7.97;2.70;;;;;;;;;;5029899;28;20694;-74
2021/11/19 12:05:28;;;;;;;7.90;2.40;;;;;;;;;;5029552;28;20224;-74
2021/11/19 12:08:15;;;;;;;9.27;2.53;;;;;;;;;;5030849;28;20287;-74
2021/11/19 12:10:56;;;;;;;5.13;2.20;;;;;;;;;;5032113;28;20229;-73
2021/11/19 12:13:28;;;;;;;8.37;2.37;;;;;;;;;;5028539;28;20214;-74
2021/11/19 12:16:02;;;;;;;4.93;2.33;;;;;;;;;;5029701;28;20248;-74
2021/11/19 12:18:34;;;;;;;10.33;2.40;;;;;;;;;;5030913;28;20256;-74
2021/11/19 12:21:09;;;;;;;10.50;2.40;;;;;;;;;;5033895;28;20203;-74
2021/11/19 12:23:46;;;;;;;8.77;2.43;;;;;;;;;;5035026;28;20639;-74
2021/11/19 12:26:25;;;;;;;10.57;2.47;;;;;;;;;;5034749;28;20551;-74
2021/11/19 12:29:01;;;;;;;7.17;2.70;;;;;;;;;;5033623;28;20223;-74
2021/11/19 12:31:31;;;;;;;8.53;2.77;;;;;;;;;;5031801;28;20411;-74
2021/11/19 12:34:04;;;;;;;6.53;2.00;;;;;;;;;;5034532;28;20222;-74
2021/11/19 12:36:37;;;;;;;7.17;2.73;;;;;;;;;;5035135;28;20215;-74
2021/11/19 12:39:09;;;;;;;6.70;2.10;;;;;;;;;;5035314;28;20621;-74
2021/11/19 12:41:41;;;;;;;8.93;2.47;;;;;;;;;;5032213;28;20253;-74
2021/11/19 12:44:35;;;;;;;7.37;2.30;;;;;;;;;;5033334;28;20217;-74
2021/11/19 12:47:26;;;;;;;9.27;2.50;;;;;;;;;;5033702;28;20243;-74
2021/11/19 12:50:13;;;;;;;9.27;3.53;;;;;;;;;;5035212;28;20234;-74
2021/11/19 12:52:45;;;;;;;9.03;2.90;;;;;;;;;;5033398;28;20658;-74
2021/11/19 12:55:33;;;;;;;5.97;2.17;;;;;;;;;;5032256;28;20214;-74
2021/11/19 12:58:25;;;;;;;10.13;2.43;;;;;;;;;;5033790;28;20572;-74
2021/11/19 13:01:11;;;;;;;9.87;2.53;;;;;;;;;;5034275;28;20693;-73
2021/11/19 13:04:19;;;;;;;8.87;3.07;;;;;;;;;;5031256;28;20234;-74
2021/11/19 13:06:54;;;;;;;10.27;2.90;;;;;;;;;;5009324;28;20206;-73
2021/11/19 13:09:44;;;;;;;12.57;2.80;;;;;;;;;;5032187;28;20238;-74
2021/11/19 13:12:27;;;;;;;9.00;2.40;;;;;;;;;;5032964;28;20214;-75
2021/11/19 13:15:30;;;;;;;13.10;2.80;;;;;;;;;;5033588;28;20209;-73
2021/11/19 13:18:01;;;;;;;9.90;2.30;;;;;;;;;;5026456;28;20573;-76
2021/11/19 13:20:55;;;;;;;11.30;3.13;;;;;;;;;;5032346;28;20207;-76
2021/11/19 13:23:43;;;;;;;9.73;2.53;;;;;;;;;;5031082;28;20213;-76
2021/11/19 13:26:52;;;;;;;8.83;1.97;;;;;;;;;;5020436;28;20665;-77
2021/11/19 13:29:49;;;;;;;6.60;2.40;;;;;;;;;;5011349;28;20230;-75
2021/11/19 13:32:56;;;;;;;10.40;2.00;;;;;;;;;;5030856;28;20248;-76
2021/11/19 13:36:05;;;;;;;9.47;2.20;;;;;;;;;;5031497;28;20210;-76
2021/11/19 13:39:12;;;;;;;6.70;2.17;;;;;;;;;;5030507;28;20296;-76
2021/11/19 13:41:46;;;;;;;6.83;2.20;;;;;;;;;;5031752;28;20628;-73
2021/11/19 13:45:02;;;;;;;9.10;2.57;;;;;;;;;;5030527;28;20586;-76
2021/11/19 13:47:42;;;;;;;10.10;2.50;;;;;;;;;;5029638;28;20552;-76
2021/11/19 13:50:17;;;;;;;7.57;2.00;;;;;;;;;;5030042;28;20233;-76
2021/11/19 13:52:47;;;;;;;9.43;2.17;;;;;;;;;;5032122;28;20272;-75
2021/11/19 13:55:28;;;;;;;9.33;2.20;;;;;;;;;;5030792;28;20269;-76
2021/11/19 13:58:03;;;;;;;8.77;2.87;;;;;;;;;;5031104;28;20227;-76
2021/11/19 14:00:43;;;;;;;6.47;2.20;;;;;;;;;;5029881;28;20597;-76
2021/11/19 14:03:14;;;;;;;9.50;2.60;;;;;;;;;;5029782;28;21134;-73
2021/11/19 14:05:44;;;;;;;75.23;7.43;;;;;;;;;;5032361;28;20252;-76
2021/11/19 14:08:17;;;;;;;8.90;2.60;;;;;;;;;;5030213;28;20222;-76
2021/11/19 14:10:48;;;;;;;12.27;2.73;;;;;;;;;;5032262;28;20520;-76
2021/11/19 14:13:22;;;;;;;23.80;4.30;;;;;;;;;;5030456;28;20905;-75
2021/11/19 14:16:03;;;;;;;15.73;2.50;;;;;;;;;;5031231;28;20711;-75
2021/11/19 14:18:33;;;;;;;6.83;2.30;;;;;;;;;;5030724;28;20241;-76
2021/11/19 14:24:00;;;;;;;7.43;2.03;;;;;;;;;;5030574;28;20294;-76
2021/11/19 14:26:29;;;;;;;7.40;2.23;;;;;;;;;;5029664;28;20209;-76
2021/11/19 14:28:58;;;;;;;12.60;2.87;;;;;;;;;;5031511;28;20230;-73
2021/11/19 14:31:26;;;;;;;6.97;2.10;;;;;;;;;;5029068;28;20589;-76
2021/11/19 14:34:03;;;;;;;8.30;2.40;;;;;;;;;;5031618;28;20753;-75
2021/11/19 14:36:31;;;;;;;10.27;2.70;;;;;;;;;;5030128;28;20300;-73
2021/11/19 14:39:03;;;;;;;14.17;2.80;;;;;;;;;;5030460;28;20211;-73
2021/11/19 14:41:42;;;;;;;8.97;2.83;;;;;;;;;;5030191;28;20229;-74
2021/11/19 14:44:13;;;;;;;12.03;2.47;;;;;;;;;;5031020;28;20222;-76
2021/11/19 14:46:46;;;;;;;10.97;2.70;;;;;;;;;;5031295;28;20734;-76
2021/11/19 14:49:21;;;;;;;7.00;2.30;;;;;;;;;;5030047;28;20231;-75
2021/11/19 14:51:51;;;;;;;8.30;2.33;;;;;;;;;;5031007;28;21027;-76
2021/11/19 14:54:33;;;;;;;7.20;2.33;;;;;;;;;;5029295;28;20281;-76
2021/11/19 14:57:12;;;;;;;9.07;2.80;;;;;;;;;;5029006;28;20217;-73
2021/11/19 14:59:53;;;;;;;7.77;2.47;;;;;;;;;;5029445;28;20269;-74
2021/11/19 15:02:29;;;;;;;10.77;2.50;;;;;;;;;;5028659;28;20287;-75